createdAt,value
2022-12-20T00:00:24.149Z,98534.81
2022-12-20T00:02:52.964Z,98535.78
2022-12-20T00:05:23.682Z,98533.06
2022-12-20T00:07:54.162Z,98532.16
2022-12-20T00:10:23.983Z,98532.16
2022-12-20T00:12:52.989Z,98521.84
2022-12-20T00:15:24.085Z,98517.75
2022-12-20T00:17:54.071Z,98510.84
2022-12-20T00:20:24.532Z,98508.25
2022-12-20T00:22:53.871Z,98506.75
2022-12-20T00:25:24.624Z,98505.09
2022-12-20T00:27:54.836Z,98501.00
2022-12-20T00:30:25.738Z,98505.47
2022-12-20T00:32:54.705Z,98502.06
2022-12-20T00:35:24.409Z,98497.75
2022-12-20T00:37:55.170Z,98484.88
2022-12-20T00:40:25.239Z,98495.84
2022-12-20T00:42:53.768Z,98498.44
2022-12-20T00:45:25.835Z,98507.06
2022-12-20T00:47:55.598Z,98498.44
2022-12-20T00:50:25.659Z,98502.66
2022-12-20T00:52:56.351Z,98503.56
2022-12-20T00:55:26.864Z,98506.88
2022-12-20T00:57:56.518Z,98507.06
2022-12-20T01:00:27.877Z,98512.22
2022-12-20T01:02:58.532Z,98506.38
2022-12-20T01:05:28.953Z,98503.81
2022-12-20T01:07:58.901Z,98504.72
2022-12-20T01:10:28.943Z,98496.31
2022-12-20T01:12:58.033Z,98488.94
2022-12-20T01:15:28.144Z,98496.66
2022-12-20T01:17:58.575Z,98500.28
2022-12-20T01:20:28.104Z,98494.22
2022-12-20T01:22:56.879Z,98495.97
2022-12-20T01:25:25.303Z,98500.38
2022-12-20T01:27:55.261Z,98501.19
2022-12-20T01:30:25.464Z,98502.84
2022-12-20T01:32:57.048Z,98500.97
2022-12-20T01:35:27.448Z,98497.47
2022-12-20T01:37:56.879Z,98498.31
2022-12-20T01:40:27.155Z,98492.34
2022-12-20T01:42:56.990Z,98497.25
2022-12-20T01:45:31.267Z,98478.31
2022-12-20T01:48:03.683Z,98478.09
2022-12-20T01:50:34.221Z,98472.13
2022-12-20T01:53:05.550Z,98475.50
2022-12-20T01:55:36.956Z,98472.00
2022-12-20T01:58:11.651Z,98474.44
2022-12-20T02:00:44.863Z,98477.84
2022-12-20T02:03:19.112Z,98471.78
2022-12-20T02:05:49.700Z,98478.44
2022-12-20T02:08:21.989Z,98465.56
2022-12-20T02:11:37.371Z,98471.44
2022-12-20T02:14:21.404Z,98463.59
2022-12-20T02:17:02.139Z,98472.03
2022-12-20T02:20:19.519Z,98461.50
2022-12-20T02:23:18.283Z,98451.09
2022-12-20T02:26:06.774Z,98438.13
2022-12-20T02:29:09.656Z,98440.69
2022-12-20T02:31:48.936Z,98447.34
2022-12-20T02:34:21.744Z,98446.41
2022-12-20T02:36:51.822Z,98448.88
2022-12-20T02:39:22.492Z,98445.34
2022-12-20T02:42:00.352Z,98435.88
2022-12-20T02:44:51.170Z,98438.31
2022-12-20T02:47:28.656Z,98445.94
2022-12-20T02:50:00.884Z,98439.06
2022-12-20T02:52:33.967Z,98433.91
2022-12-20T02:55:06.659Z,98422.69
2022-12-20T02:57:53.422Z,98414.13
2022-12-20T03:00:34.389Z,98402.09
2022-12-20T03:03:25.496Z,98390.16
2022-12-20T03:05:58.017Z,98395.28
2022-12-20T03:08:28.449Z,98417.63
2022-12-20T03:10:58.777Z,98420.31
2022-12-20T03:13:28.040Z,98408.97
2022-12-20T03:15:57.588Z,98409.81
2022-12-20T03:18:28.771Z,98414.25
2022-12-20T03:20:59.932Z,98420.44
2022-12-20T03:23:29.557Z,98419.63
2022-12-20T03:25:59.102Z,98420.56
2022-12-20T03:28:28.607Z,98420.56
2022-12-20T03:30:58.371Z,98407.09
2022-12-20T03:33:29.959Z,98408.28
2022-12-20T03:36:00.336Z,98409.31
2022-12-20T03:38:29.938Z,98412.25
2022-12-20T03:41:00.035Z,98409.78
2022-12-20T03:43:30.001Z,98406.53
2022-12-20T03:46:00.123Z,98398.91
2022-12-20T03:48:30.815Z,98405.94
2022-12-20T03:51:01.369Z,98404.16
2022-12-20T03:53:30.717Z,98403.13
2022-12-20T03:56:01.639Z,98394.59
2022-12-20T03:58:31.656Z,98396.25
2022-12-20T04:01:03.786Z,98389.22
2022-12-20T04:03:35.738Z,98392.59
2022-12-20T04:06:05.815Z,98401.16
2022-12-20T04:08:36.725Z,98394.34
2022-12-20T04:11:18.457Z,98389.22
2022-12-20T04:13:50.219Z,98392.72
2022-12-20T04:16:22.706Z,98393.53
2022-12-20T04:18:53.768Z,98400.44
2022-12-20T04:21:25.389Z,98394.34
2022-12-20T04:23:55.888Z,98393.44
2022-12-20T04:26:25.518Z,98393.44
2022-12-20T04:28:55.804Z,98385.56
2022-12-20T04:31:25.228Z,98388.88
2022-12-20T04:33:57.152Z,98386.41
2022-12-20T04:36:26.873Z,98380.19
2022-12-20T04:38:57.895Z,98372.38
2022-12-20T04:41:28.735Z,98377.41
2022-12-20T04:44:00.524Z,98393.66
2022-12-20T04:46:31.583Z,98397.88
2022-12-20T04:49:03.450Z,98393.44
2022-12-20T04:51:34.566Z,98387.34
2022-12-20T04:54:03.687Z,98368.38
2022-12-20T04:56:33.900Z,98358.09
2022-12-20T04:59:02.740Z,98363.00
2022-12-20T05:01:31.982Z,98349.22
2022-12-20T05:04:03.502Z,98343.00
2022-12-20T05:06:34.743Z,98356.56
2022-12-20T05:09:05.109Z,98345.22
2022-12-20T05:11:35.780Z,98349.41
2022-12-20T05:14:05.737Z,98338.19
2022-12-20T05:16:35.107Z,98350.13
2022-12-20T05:19:06.248Z,98353.38
2022-12-20T05:21:53.026Z,98349.88
2022-12-20T05:24:40.406Z,98347.19
2022-12-20T05:27:10.497Z,98342.06
2022-12-20T05:29:40.968Z,98338.53
2022-12-20T05:32:09.715Z,98333.25
2022-12-20T05:34:41.246Z,98338.41
2022-12-20T05:37:10.772Z,98336.53
2022-12-20T05:39:40.658Z,98333.03
2022-12-20T05:42:10.752Z,98321.78
2022-12-20T05:44:40.207Z,98320.84
2022-12-20T05:47:09.784Z,98319.91
2022-12-20T05:49:41.377Z,98325.72
2022-12-20T05:52:12.608Z,98327.28
2022-12-20T05:54:42.165Z,98327.97
2022-12-20T05:57:11.665Z,98323.63
2022-12-20T05:59:42.561Z,98315.09
2022-12-20T06:02:13.582Z,98319.31
2022-12-20T06:04:45.491Z,98319.16
2022-12-20T06:07:14.862Z,98325.03
2022-12-20T06:09:45.501Z,98318.13
2022-12-20T06:12:15.807Z,98323.28
2022-12-20T06:14:46.422Z,98336.00
2022-12-20T06:17:15.500Z,98333.44
2022-12-20T06:19:48.262Z,98332.63
2022-12-20T06:22:17.773Z,98325.72
2022-12-20T06:24:48.796Z,98323.84
2022-12-20T06:27:19.362Z,98323.84
2022-12-20T06:29:52.078Z,98324.66
2022-12-20T06:32:21.509Z,98316.13
2022-12-20T06:34:53.545Z,98309.31
2022-12-20T06:37:24.085Z,98312.72
2022-12-20T06:39:53.776Z,98310.25
2022-12-20T06:42:24.196Z,98311.91
2022-12-20T06:44:53.562Z,98307.56
2022-12-20T06:47:21.968Z,98302.28
2022-12-20T06:49:54.032Z,98299.72
2022-12-20T06:52:24.014Z,98303.25
2022-12-20T06:54:55.069Z,98306.84
2022-12-20T06:57:24.678Z,98300.91
2022-12-20T06:59:55.127Z,98295.88
2022-12-20T07:02:27.592Z,98304.53
2022-12-20T07:05:00.577Z,98305.34
2022-12-20T07:07:30.004Z,98307.81
2022-12-20T07:10:00.059Z,98314.84
2022-12-20T07:12:31.031Z,98308.19
2022-12-20T07:15:01.102Z,98306.44
2022-12-20T07:17:30.931Z,98308.84
2022-12-20T07:20:06.261Z,98295.41
2022-12-20T07:22:39.256Z,98289.22
2022-12-20T07:25:11.254Z,98297.63
2022-12-20T07:27:42.100Z,98294.94
2022-12-20T07:30:12.443Z,98288.97
2022-12-20T07:32:42.907Z,98290.47
2022-12-20T07:35:15.112Z,98296.69
2022-12-20T07:37:45.648Z,98295.88
2022-12-20T07:40:17.844Z,98290.47
2022-12-20T07:42:49.054Z,98289.19
2022-12-20T07:45:19.196Z,98277.09
2022-12-20T07:47:49.754Z,98281.47
2022-12-20T07:50:19.721Z,98288.94
2022-12-20T07:52:51.799Z,98281.91
2022-12-20T07:55:22.569Z,98280.03
2022-12-20T07:57:58.013Z,98283.28
2022-12-20T08:00:28.602Z,98285.88
2022-12-20T08:03:04.972Z,98290.34
2022-12-20T08:05:41.744Z,98282.47
2022-12-20T08:08:13.031Z,98278.13
2022-12-20T08:10:43.476Z,98276.25
2022-12-20T08:13:13.094Z,98267.69
2022-12-20T08:15:42.926Z,98278.72
2022-12-20T08:18:12.314Z,98281.13
2022-12-20T08:20:42.924Z,98287.13
2022-12-20T08:23:13.411Z,98283.34
2022-12-20T08:25:43.030Z,98276.56
2022-12-20T08:28:13.391Z,98277.13
2022-12-20T08:30:42.939Z,98278.66
2022-12-20T08:33:13.429Z,98271.75
2022-12-20T08:35:45.556Z,98269.03
2022-12-20T08:38:16.677Z,98272.53
2022-12-20T08:40:47.573Z,98264.69
2022-12-20T08:43:18.108Z,98262.94
2022-12-20T08:45:48.104Z,98271.50
2022-12-20T08:48:18.247Z,98275.56
2022-12-20T08:50:49.941Z,98281.28
2022-12-20T08:53:19.539Z,98276.81
2022-12-20T08:55:49.974Z,98269.91
2022-12-20T08:58:19.603Z,98267.09
2022-12-20T09:00:48.988Z,98268.63
2022-12-20T09:03:18.605Z,98265.78
2022-12-20T09:05:50.795Z,98261.31
2022-12-20T09:08:20.236Z,98257.53
2022-12-20T09:10:49.907Z,98264.19
2022-12-20T09:13:20.082Z,98259.75
2022-12-20T09:15:50.018Z,98250.25
2022-12-20T09:18:19.023Z,98246.44
2022-12-20T09:20:49.754Z,98240.34
2022-12-20T09:23:20.635Z,98237.50
2022-12-20T09:25:53.876Z,98241.59
2022-12-20T09:28:23.933Z,98231.84
2022-12-20T09:30:54.556Z,98232.53
2022-12-20T09:33:24.431Z,98224.66
2022-12-20T09:35:55.935Z,98224.53
2022-12-20T09:38:26.065Z,98223.34
2022-12-20T09:41:00.594Z,98223.75
2022-12-20T09:43:30.582Z,98227.03
2022-12-20T09:46:03.456Z,98232.88
2022-12-20T09:48:39.221Z,98233.44
2022-12-20T09:51:33.457Z,98234.94
2022-12-20T09:54:20.306Z,98226.97
2022-12-20T09:57:03.172Z,98223.41
2022-12-20T09:59:40.426Z,98231.69
2022-12-20T10:02:44.384Z,98232.25
2022-12-20T10:05:04.636Z,98232.69
2022-12-20T10:07:48.750Z,98218.84
2022-12-20T10:10:52.921Z,98220.19
2022-12-20T10:13:52.234Z,98218.06
2022-12-20T10:16:40.402Z,98208.13
2022-12-20T10:19:39.357Z,98207.06
2022-12-20T10:22:18.607Z,98198.91
2022-12-20T10:25:00.197Z,98201.09
2022-12-20T10:27:30.149Z,98200.72
2022-12-20T10:30:00.162Z,98199.50
2022-12-20T10:32:31.104Z,98188.91
2022-12-20T10:35:26.516Z,98194.34
2022-12-20T10:38:10.231Z,98197.31
2022-12-20T10:41:19.425Z,98188.22
2022-12-20T10:43:45.787Z,98186.03
2022-12-20T10:46:18.621Z,98182.41
2022-12-20T10:48:51.491Z,98188.75
2022-12-20T10:51:23.905Z,98180.47
2022-12-20T10:54:00.048Z,98183.47
2022-12-20T10:56:33.765Z,98174.34
2022-12-20T10:59:25.042Z,98160.06
2022-12-20T11:01:55.596Z,98151.75
2022-12-20T11:04:31.707Z,98141.00
2022-12-20T11:07:03.333Z,98146.72
2022-12-20T11:09:35.667Z,98141.91
2022-12-20T11:12:15.810Z,98141.34
2022-12-20T11:14:47.576Z,98144.47
2022-12-20T11:17:30.372Z,98130.31
2022-12-20T11:20:27.164Z,98124.84
2022-12-20T11:23:17.130Z,98124.31
2022-12-20T11:26:14.131Z,98121.16
2022-12-20T11:29:09.410Z,98121.53
2022-12-20T11:31:57.909Z,98120.16
2022-12-20T11:34:41.647Z,98118.91
2022-12-20T11:37:49.589Z,98119.28
2022-12-20T11:40:33.309Z,98125.81
2022-12-20T11:44:07.975Z,98121.03
2022-12-20T11:46:58.582Z,98121.69
2022-12-20T11:50:04.641Z,98123.03
2022-12-20T11:52:44.749Z,98111.56
2022-12-20T11:55:23.992Z,98101.75
2022-12-20T11:58:18.684Z,98097.91
2022-12-20T12:00:58.027Z,98086.59
2022-12-20T12:03:36.498Z,98073.66
2022-12-20T12:06:12.857Z,98063.31
2022-12-20T12:08:51.905Z,98052.38
2022-12-20T12:14:31.098Z,98035.19
2022-12-20T12:17:10.697Z,98032.63
2022-12-20T12:19:49.001Z,98023.22
2022-12-20T12:22:28.833Z,98031.66
2022-12-20T12:25:05.198Z,98022.94
2022-12-20T12:27:36.007Z,98022.94
2022-12-20T12:30:07.542Z,98019.38
2022-12-20T12:32:44.549Z,98019.25
2022-12-20T12:35:47.585Z,98033.22
2022-12-20T12:39:02.302Z,98040.00
2022-12-20T12:42:13.279Z,98038.31
2022-12-20T12:44:53.298Z,98040.47
2022-12-20T12:47:36.848Z,98029.94
2022-12-20T12:50:18.223Z,98041.19
2022-12-20T12:52:55.509Z,98042.53
2022-12-20T12:55:45.561Z,98047.22
2022-12-20T12:58:38.223Z,98051.81
2022-12-20T13:01:13.188Z,98049.25
2022-12-20T13:04:10.118Z,98035.31
2022-12-20T13:07:29.133Z,98034.72
2022-12-20T13:10:00.203Z,98029.38
2022-12-20T13:12:59.451Z,98029.22
2022-12-20T13:16:12.089Z,98024.06
2022-12-20T13:19:05.924Z,98018.88
2022-12-20T13:21:41.703Z,98018.88
2022-12-20T13:24:56.413Z,98004.44
2022-12-20T13:27:35.241Z,98001.03
2022-12-20T13:30:36.401Z,98003.78
2022-12-20T13:33:24.821Z,97987.78
2022-12-20T13:36:18.871Z,97991.53
2022-12-20T13:39:01.391Z,97990.72
2022-12-20T13:41:47.044Z,97993.38
2022-12-20T13:44:42.203Z,97995.50
2022-12-20T13:47:41.708Z,97996.00
2022-12-20T13:50:39.383Z,97995.84
2022-12-20T13:53:19.965Z,97989.03
2022-12-20T13:55:51.158Z,97991.63
2022-12-20T13:58:26.114Z,97993.09
2022-12-20T14:01:06.666Z,97996.78
2022-12-20T14:03:44.650Z,97972.38
2022-12-20T14:06:22.926Z,97969.78
2022-12-20T14:08:56.439Z,97978.38
2022-12-20T14:11:28.459Z,97981.75
2022-12-20T14:14:00.702Z,97972.19
2022-12-20T14:16:33.061Z,97971.09
2022-12-20T14:19:06.374Z,97961.38
2022-12-20T14:21:40.260Z,97968.34
2022-12-20T14:24:17.469Z,97976.63
2022-12-20T14:26:49.847Z,97980.03
2022-12-20T14:29:21.757Z,97978.91
2022-12-20T14:31:54.450Z,97981.19
2022-12-20T14:34:30.164Z,97979.25
2022-12-20T14:37:33.944Z,97973.91
2022-12-20T14:40:18.244Z,97977.31
2022-12-20T14:42:48.432Z,97979.09
2022-12-20T14:45:27.648Z,97965.97
2022-12-20T14:48:03.739Z,97965.97
2022-12-20T14:50:36.607Z,97965.31
2022-12-20T14:53:20.656Z,97961.94
2022-12-20T14:55:51.621Z,97961.13
2022-12-20T14:58:31.293Z,97954.28
2022-12-20T15:01:04.078Z,97946.84
2022-12-20T15:03:35.172Z,97947.66
2022-12-20T15:06:06.432Z,97946.84
2022-12-20T15:08:40.572Z,97940.00
2022-12-20T15:11:24.053Z,97933.38
2022-12-20T15:13:56.840Z,97947.78
2022-12-20T15:16:30.105Z,97947.47
2022-12-20T15:19:04.499Z,97935.28
2022-12-20T15:21:37.374Z,97940.78
2022-12-20T15:24:13.260Z,97935.91
2022-12-20T15:26:44.407Z,97939.78
2022-12-20T15:29:20.116Z,97945.78
2022-12-20T15:31:51.429Z,97955.34
2022-12-20T15:34:30.125Z,97953.88
2022-12-20T15:37:01.085Z,97946.91
2022-12-20T15:39:31.150Z,97946.09
2022-12-20T15:42:05.526Z,97946.41
2022-12-20T15:44:37.722Z,97954.19
2022-12-20T15:47:07.031Z,97955.81
2022-12-20T15:49:37.794Z,97961.00
2022-12-20T15:52:07.948Z,97958.72
2022-12-20T15:54:38.782Z,97951.91
2022-12-20T15:57:13.732Z,97952.22
2022-12-20T16:00:01.750Z,97944.09
2022-12-20T16:02:34.975Z,97950.06
2022-12-20T16:05:06.868Z,97958.34
2022-12-20T16:07:36.067Z,97961.09
2022-12-20T16:10:10.487Z,97962.91
2022-12-20T16:12:39.453Z,97964.50
2022-12-20T16:15:20.724Z,97951.72
2022-12-20T16:17:50.703Z,97946.03
2022-12-20T16:20:23.321Z,97937.25
2022-12-20T16:22:53.110Z,97943.25
2022-12-20T16:25:32.522Z,97944.09
2022-12-20T16:28:02.902Z,97938.44
2022-12-20T16:30:31.586Z,97938.28
2022-12-20T16:33:00.846Z,97940.88
2022-12-20T16:35:36.572Z,97933.91
2022-12-20T16:38:07.162Z,97940.72
2022-12-20T16:40:37.140Z,97931.31
2022-12-20T16:43:07.841Z,97932.44
2022-12-20T16:45:37.648Z,97933.91
2022-12-20T16:48:10.022Z,97928.09
2022-12-20T16:50:43.960Z,97917.88
2022-12-20T16:53:17.171Z,97917.88
2022-12-20T16:55:48.278Z,97925.63
2022-12-20T16:58:18.875Z,97923.88
2022-12-20T17:00:48.515Z,97927.28
2022-12-20T17:03:19.385Z,97917.88
2022-12-20T17:05:50.804Z,97924.03
2022-12-20T17:11:17.123Z,97935.34
2022-12-20T17:13:48.302Z,97933.72
2022-12-20T17:16:19.048Z,97928.53
2022-12-20T17:18:51.767Z,97936.97
2022-12-20T17:21:33.549Z,97933.72
2022-12-20T17:24:04.054Z,97932.25
2022-12-20T17:26:34.176Z,97938.91
2022-12-20T17:29:03.268Z,97934.53
2022-12-20T17:31:36.838Z,97941.50
2022-12-20T17:34:07.793Z,97934.69
2022-12-20T17:36:38.641Z,97934.69
2022-12-20T17:39:08.315Z,97928.03
2022-12-20T17:41:38.668Z,97933.22
2022-12-20T17:44:08.786Z,97928.84
2022-12-20T17:46:38.358Z,97930.63
2022-12-20T17:49:08.587Z,97927.22
2022-12-20T17:51:38.735Z,97929.03
2022-12-20T17:54:15.113Z,97923.03
2022-12-20T17:56:45.427Z,97928.03
2022-12-20T17:59:15.539Z,97921.25
2022-12-20T18:01:45.689Z,97919.63
2022-12-20T18:04:17.552Z,97912.66
2022-12-20T18:06:49.108Z,97912.00
2022-12-20T18:09:21.117Z,97905.19
2022-12-20T18:11:50.661Z,97906.97
2022-12-20T18:14:19.839Z,97902.75
2022-12-20T18:16:49.174Z,97895.13
2022-12-20T18:19:20.620Z,97895.13
2022-12-20T18:21:51.477Z,97899.66
2022-12-20T18:24:21.931Z,97902.25
2022-12-20T18:26:50.775Z,97897.06
2022-12-20T18:29:20.860Z,97904.19
2022-12-20T18:31:49.772Z,97912.94
2022-12-20T18:34:18.258Z,97909.38
2022-12-20T18:36:48.014Z,97913.75
2022-12-20T18:39:19.628Z,97917.16
2022-12-20T18:41:49.556Z,97911.28
2022-12-20T18:44:18.557Z,97907.06
2022-12-20T18:46:48.396Z,97911.28
2022-12-20T18:49:18.190Z,97912.25
2022-12-20T18:51:47.872Z,97909.66
2022-12-20T18:54:18.786Z,97908.69
2022-12-20T18:56:49.246Z,97904.47
2022-12-20T18:59:18.528Z,97901.88
2022-12-20T19:01:48.951Z,97904.47
2022-12-20T19:04:24.530Z,97904.47
2022-12-20T19:06:53.926Z,97910.66
2022-12-20T19:09:25.954Z,97909.97
2022-12-20T19:11:57.718Z,97904.66
2022-12-20T19:14:27.903Z,97906.41
2022-12-20T19:16:57.620Z,97902.69
2022-12-20T19:19:27.291Z,97903.38
2022-12-20T19:21:56.323Z,97904.34
2022-12-20T19:24:27.388Z,97901.59
2022-12-20T19:26:58.265Z,97907.56
2022-12-20T19:29:27.456Z,97902.09
2022-12-20T19:31:58.260Z,97898.69
2022-12-20T19:34:27.466Z,97899.53
2022-12-20T19:36:58.273Z,97896.75
2022-12-20T19:39:31.033Z,97903.56
2022-12-20T19:42:23.194Z,97888.03
2022-12-20T19:44:50.632Z,97890.44
2022-12-20T19:47:22.420Z,97884.47
2022-12-20T19:49:52.823Z,97888.66
2022-12-20T19:52:28.208Z,97882.53
2022-12-20T19:54:59.489Z,97890.31
2022-12-20T19:57:29.886Z,97890.31
2022-12-20T19:59:59.299Z,97884.16
2022-12-20T20:02:29.687Z,97886.75
2022-12-20T20:04:59.988Z,97884.16
2022-12-20T20:07:30.728Z,97879.81
2022-12-20T20:10:00.771Z,97869.28
2022-12-20T20:12:31.930Z,97880.44
2022-12-20T20:15:01.853Z,97874.00
2022-12-20T20:17:31.548Z,97868.94
2022-12-20T20:20:01.244Z,97871.22
2022-12-20T20:22:31.943Z,97866.72
2022-12-20T20:25:02.652Z,97865.72
2022-12-20T20:27:32.231Z,97859.44
2022-12-20T20:30:01.572Z,97867.03
2022-12-20T20:32:32.001Z,97857.34
2022-12-20T20:35:01.712Z,97858.94
2022-12-20T20:37:31.761Z,97852.00
2022-12-20T20:40:04.428Z,97851.03
2022-12-20T20:42:34.964Z,97850.91
2022-12-20T20:45:05.220Z,97846.84
2022-12-20T20:47:34.632Z,97848.31
2022-12-20T20:50:04.446Z,97844.75
2022-12-20T20:52:34.958Z,97847.03
2022-12-20T20:55:07.554Z,97845.06
2022-12-20T20:57:36.272Z,97844.13
2022-12-20T21:00:07.852Z,97840.56
2022-12-20T21:02:37.352Z,97843.66
2022-12-20T21:05:59.225Z,97839.91
2022-12-20T21:08:00.567Z,97836.69
2022-12-20T21:10:32.583Z,97836.53
2022-12-20T21:13:03.521Z,97835.41
2022-12-20T21:15:33.893Z,97831.84
2022-12-20T21:18:03.123Z,97827.16
2022-12-20T21:20:32.593Z,97819.19
2022-12-20T21:23:03.439Z,97809.16
2022-12-20T21:25:36.020Z,97807.69
2022-12-20T21:28:05.937Z,97811.59
2022-12-20T21:30:35.719Z,97808.53
2022-12-20T21:33:05.463Z,97815.97
2022-12-20T21:35:34.960Z,97802.84
2022-12-20T21:38:04.807Z,97804.94
2022-12-20T21:40:36.058Z,97794.25
2022-12-20T21:43:04.962Z,97800.56
2022-12-20T21:45:35.912Z,97805.47
2022-12-20T21:48:06.620Z,97807.59
2022-12-20T21:50:36.503Z,97807.25
2022-12-20T21:53:07.198Z,97793.31
2022-12-20T21:55:38.743Z,97796.53
2022-12-20T21:58:07.758Z,97799.75
2022-12-20T22:00:38.529Z,97795.38
2022-12-20T22:03:08.410Z,97790.69
2022-12-20T22:05:38.509Z,97788.75
2022-12-20T22:08:09.216Z,97791.16
2022-12-20T22:10:40.608Z,97787.25
2022-12-20T22:13:10.783Z,97797.66
2022-12-20T22:15:40.578Z,97794.91
2022-12-20T22:18:10.937Z,97804.13
2022-12-20T22:20:40.561Z,97798.94
2022-12-20T22:23:10.229Z,97798.75
2022-12-20T22:25:40.977Z,97796.16
2022-12-20T22:28:09.804Z,97796.81
2022-12-20T22:30:42.991Z,97802.50
2022-12-20T22:33:12.792Z,97802.31
2022-12-20T22:35:43.384Z,97791.16
2022-12-20T22:38:12.977Z,97795.34
2022-12-20T22:40:45.200Z,97796.00
2022-12-20T22:43:14.297Z,97800.03
2022-12-20T22:45:45.357Z,97791.91
2022-12-20T22:48:14.528Z,97793.22
2022-12-20T22:50:44.599Z,97784.47
2022-12-20T22:53:15.252Z,97780.84
2022-12-20T22:55:47.006Z,97784.28
2022-12-20T22:58:17.240Z,97783.78
2022-12-20T23:00:47.031Z,97780.84
2022-12-20T23:03:17.476Z,97787.34
2022-12-20T23:05:54.876Z,97779.81
2022-12-20T23:08:27.166Z,97777.88
2022-12-20T23:11:15.544Z,97781.13
2022-12-20T23:14:03.112Z,97782.41
2022-12-20T23:16:33.305Z,97780.44
2022-12-20T23:19:03.665Z,97781.91
2022-12-20T23:21:50.662Z,97781.56
2022-12-20T23:24:20.891Z,97775.56
2022-12-20T23:26:52.433Z,97780.41
2022-12-20T23:29:22.627Z,97772.63
2022-12-20T23:31:52.657Z,97776.84
2022-12-20T23:34:22.001Z,97773.28
2022-12-20T23:36:52.124Z,97774.06
2022-12-20T23:39:22.399Z,97782.66
2022-12-20T23:41:52.710Z,97776.50
2022-12-20T23:44:21.980Z,97778.94
2022-12-20T23:46:50.969Z,97775.53
2022-12-20T23:49:21.304Z,97775.81
2022-12-20T23:51:51.161Z,97779.38
2022-12-20T23:54:22.115Z,97772.59
2022-12-20T23:56:53.231Z,97771.59
2022-12-20T23:59:22.858Z,97775.19
